sensor_id;sensor_type;location;lat;lon;timestamp;temperature;humidity
22738;DHT22;11536;50.860;4.286;2022-12-18T00:02:14;-1.30;99.90
22738;DHT22;11536;50.860;4.286;2022-12-18T00:04:40;-1.40;99.90
22738;DHT22;11536;50.860;4.286;2022-12-18T00:07:06;-1.40;99.90
22738;DHT22;11536;50.860;4.286;2022-12-18T00:09:31;-1.40;99.90
22738;DHT22;11536;50.860;4.286;2022-12-18T00:11:57;-1.40;99.90
22738;DHT22;11536;50.860;4.286;2022-12-18T00:14:22;-1.40;99.90
22738;DHT22;11536;50.860;4.286;2022-12-18T00:16:48;-1.40;99.90
22738;DHT22;11536;50.860;4.286;2022-12-18T00:19:14;-1.50;99.90
22738;DHT22;11536;50.860;4.286;2022-12-18T00:21:42;-1.50;99.90
22738;DHT22;11536;50.860;4.286;2022-12-18T00:24:09;-1.50;99.90
22738;DHT22;11536;50.860;4.286;2022-12-18T00:26:36;-1.50;99.90
22738;DHT22;11536;50.860;4.286;2022-12-18T00:29:07;-1.60;99.90
22738;DHT22;11536;50.860;4.286;2022-12-18T00:31:33;-1.60;99.90
22738;DHT22;11536;50.860;4.286;2022-12-18T00:33:59;-1.60;99.90
22738;DHT22;11536;50.860;4.286;2022-12-18T00:36:28;-1.60;99.90
22738;DHT22;11536;50.860;4.286;2022-12-18T00:38:55;-1.70;99.90
22738;DHT22;11536;50.860;4.286;2022-12-18T00:41:22;-1.70;99.90
22738;DHT22;11536;50.860;4.286;2022-12-18T00:44:08;-1.70;99.90
22738;DHT22;11536;50.860;4.286;2022-12-18T00:46:34;-1.70;99.90
22738;DHT22;11536;50.860;4.286;2022-12-18T00:49:00;-1.80;99.90
22738;DHT22;11536;50.860;4.286;2022-12-18T00:51:26;-1.80;99.90
22738;DHT22;11536;50.860;4.286;2022-12-18T00:53:52;-1.80;99.90
22738;DHT22;11536;50.860;4.286;2022-12-18T00:56:18;-1.80;99.90
22738;DHT22;11536;50.860;4.286;2022-12-18T00:58:43;-1.90;99.90
22738;DHT22;11536;50.860;4.286;2022-12-18T01:01:09;-1.90;99.90
22738;DHT22;11536;50.860;4.286;2022-12-18T01:03:35;-1.90;99.90
22738;DHT22;11536;50.860;4.286;2022-12-18T01:06:06;-1.90;99.90
22738;DHT22;11536;50.860;4.286;2022-12-18T01:08:32;-1.90;99.90
22738;DHT22;11536;50.860;4.286;2022-12-18T01:10:58;-1.90;99.90
22738;DHT22;11536;50.860;4.286;2022-12-18T01:13:23;-1.90;99.90
22738;DHT22;11536;50.860;4.286;2022-12-18T01:15:50;-1.90;99.90
22738;DHT22;11536;50.860;4.286;2022-12-18T01:18:16;-1.90;99.90
22738;DHT22;11536;50.860;4.286;2022-12-18T01:20:41;-1.90;99.90
22738;DHT22;11536;50.860;4.286;2022-12-18T01:23:07;-2.00;99.90
22738;DHT22;11536;50.860;4.286;2022-12-18T01:25:33;-2.00;99.90
22738;DHT22;11536;50.860;4.286;2022-12-18T01:28:00;-2.00;99.90
22738;DHT22;11536;50.860;4.286;2022-12-18T01:30:27;-2.00;99.90
22738;DHT22;11536;50.860;4.286;2022-12-18T01:32:52;-2.00;99.90
22738;DHT22;11536;50.860;4.286;2022-12-18T01:35:18;-2.00;99.90
22738;DHT22;11536;50.860;4.286;2022-12-18T01:37:43;-2.00;99.90
22738;DHT22;11536;50.860;4.286;2022-12-18T01:40:09;-2.10;99.90
22738;DHT22;11536;50.860;4.286;2022-12-18T01:42:35;-2.00;99.90
22738;DHT22;11536;50.860;4.286;2022-12-18T01:45:23;-2.10;99.90
22738;DHT22;11536;50.860;4.286;2022-12-18T01:50:22;-2.10;99.90
22738;DHT22;11536;50.860;4.286;2022-12-18T01:52:55;-2.10;99.90
22738;DHT22;11536;50.860;4.286;2022-12-18T01:55:24;-2.10;99.90
22738;DHT22;11536;50.860;4.286;2022-12-18T01:57:55;-2.20;99.90
22738;DHT22;11536;50.860;4.286;2022-12-18T02:00:22;-2.20;99.90
22738;DHT22;11536;50.860;4.286;2022-12-18T02:02:48;-2.20;99.90
22738;DHT22;11536;50.860;4.286;2022-12-18T02:05:21;-2.20;99.90
22738;DHT22;11536;50.860;4.286;2022-12-18T02:08:09;-2.30;99.90
22738;DHT22;11536;50.860;4.286;2022-12-18T02:16:26;-2.30;99.90
22738;DHT22;11536;50.860;4.286;2022-12-18T02:19:00;-2.30;99.90
22738;DHT22;11536;50.860;4.286;2022-12-18T02:22:08;-2.40;99.90
22738;DHT22;11536;50.860;4.286;2022-12-18T02:27:00;-2.40;99.90
22738;DHT22;11536;50.860;4.286;2022-12-18T02:29:49;-2.50;99.90
22738;DHT22;11536;50.860;4.286;2022-12-18T02:32:20;-2.50;99.90
22738;DHT22;11536;50.860;4.286;2022-12-18T02:34:48;-2.50;99.90
22738;DHT22;11536;50.860;4.286;2022-12-18T02:37:18;-2.50;99.90
22738;DHT22;11536;50.860;4.286;2022-12-18T02:39:45;-2.50;99.90
22738;DHT22;11536;50.860;4.286;2022-12-18T02:42:12;-2.60;99.90
22738;DHT22;11536;50.860;4.286;2022-12-18T02:44:46;-2.60;99.90
22738;DHT22;11536;50.860;4.286;2022-12-18T02:47:14;-2.60;99.90
22738;DHT22;11536;50.860;4.286;2022-12-18T02:49:49;-2.60;99.90
22738;DHT22;11536;50.860;4.286;2022-12-18T02:57:50;-2.60;99.90
22738;DHT22;11536;50.860;4.286;2022-12-18T03:00:28;-2.60;99.90
22738;DHT22;11536;50.860;4.286;2022-12-18T03:02:59;-2.60;99.90
22738;DHT22;11536;50.860;4.286;2022-12-18T03:05:36;-2.50;99.90
22738;DHT22;11536;50.860;4.286;2022-12-18T03:08:08;-2.50;99.90
22738;DHT22;11536;50.860;4.286;2022-12-18T03:10:42;-2.40;99.90
22738;DHT22;11536;50.860;4.286;2022-12-18T03:13:13;-2.30;99.90
22738;DHT22;11536;50.860;4.286;2022-12-18T03:15:45;-2.30;99.90
22738;DHT22;11536;50.860;4.286;2022-12-18T03:18:29;-2.30;99.90
22738;DHT22;11536;50.860;4.286;2022-12-18T03:20:59;-2.30;99.90
22738;DHT22;11536;50.860;4.286;2022-12-18T03:23:28;-2.30;99.90
22738;DHT22;11536;50.860;4.286;2022-12-18T03:25:56;-2.20;99.90
22738;DHT22;11536;50.860;4.286;2022-12-18T03:28:23;-2.20;99.90
22738;DHT22;11536;50.860;4.286;2022-12-18T03:30:54;-2.20;99.90
22738;DHT22;11536;50.860;4.286;2022-12-18T03:33:27;-2.20;99.90
22738;DHT22;11536;50.860;4.286;2022-12-18T03:35:55;-2.20;99.90
22738;DHT22;11536;50.860;4.286;2022-12-18T03:38:20;-2.20;99.90
22738;DHT22;11536;50.860;4.286;2022-12-18T03:40:59;-2.20;99.90
22738;DHT22;11536;50.860;4.286;2022-12-18T03:43:51;-2.20;99.90
22738;DHT22;11536;50.860;4.286;2022-12-18T03:46:28;-2.30;99.90
22738;DHT22;11536;50.860;4.286;2022-12-18T03:49:04;-2.30;99.90
22738;DHT22;11536;50.860;4.286;2022-12-18T03:51:44;-2.30;99.90
22738;DHT22;11536;50.860;4.286;2022-12-18T03:54:11;-2.40;99.90
22738;DHT22;11536;50.860;4.286;2022-12-18T03:56:40;-2.40;99.90
22738;DHT22;11536;50.860;4.286;2022-12-18T03:59:09;-2.40;99.90
22738;DHT22;11536;50.860;4.286;2022-12-18T04:01:45;-2.50;99.90
22738;DHT22;11536;50.860;4.286;2022-12-18T04:04:13;-2.50;99.90
22738;DHT22;11536;50.860;4.286;2022-12-18T04:06:40;-2.50;99.90
22738;DHT22;11536;50.860;4.286;2022-12-18T04:09:07;-2.40;99.90
22738;DHT22;11536;50.860;4.286;2022-12-18T04:11:33;-2.50;99.90
22738;DHT22;11536;50.860;4.286;2022-12-18T04:13:59;-2.50;99.90
22738;DHT22;11536;50.860;4.286;2022-12-18T04:16:28;-2.50;99.90
22738;DHT22;11536;50.860;4.286;2022-12-18T04:18:53;-2.50;99.90
22738;DHT22;11536;50.860;4.286;2022-12-18T04:21:20;-2.50;99.90
22738;DHT22;11536;50.860;4.286;2022-12-18T04:23:45;-2.50;99.90
22738;DHT22;11536;50.860;4.286;2022-12-18T04:26:11;-2.60;99.90
22738;DHT22;11536;50.860;4.286;2022-12-18T04:28:36;-2.60;99.90
22738;DHT22;11536;50.860;4.286;2022-12-18T04:31:04;-2.60;99.90
22738;DHT22;11536;50.860;4.286;2022-12-18T04:33:29;-2.60;99.90
22738;DHT22;11536;50.860;4.286;2022-12-18T04:35:55;-2.70;99.90
22738;DHT22;11536;50.860;4.286;2022-12-18T04:38:21;-2.70;99.90
22738;DHT22;11536;50.860;4.286;2022-12-18T04:40:46;-2.70;99.90
22738;DHT22;11536;50.860;4.286;2022-12-18T04:43:12;-2.70;99.90
22738;DHT22;11536;50.860;4.286;2022-12-18T04:45:38;-2.80;99.90
22738;DHT22;11536;50.860;4.286;2022-12-18T04:48:04;-2.70;99.90
22738;DHT22;11536;50.860;4.286;2022-12-18T04:50:30;-2.80;99.90
22738;DHT22;11536;50.860;4.286;2022-12-18T04:52:56;-2.80;99.90
22738;DHT22;11536;50.860;4.286;2022-12-18T04:55:21;-2.80;99.90
22738;DHT22;11536;50.860;4.286;2022-12-18T04:57:50;-2.80;99.90
22738;DHT22;11536;50.860;4.286;2022-12-18T05:00:16;-2.90;99.90
22738;DHT22;11536;50.860;4.286;2022-12-18T05:02:42;-2.90;99.90
22738;DHT22;11536;50.860;4.286;2022-12-18T05:05:07;-2.90;99.90
22738;DHT22;11536;50.860;4.286;2022-12-18T05:07:33;-2.90;99.90
22738;DHT22;11536;50.860;4.286;2022-12-18T05:09:59;-3.00;99.90
22738;DHT22;11536;50.860;4.286;2022-12-18T05:12:25;-3.00;99.90
22738;DHT22;11536;50.860;4.286;2022-12-18T05:14:51;-3.00;99.90
22738;DHT22;11536;50.860;4.286;2022-12-18T05:17:16;-3.00;99.90
22738;DHT22;11536;50.860;4.286;2022-12-18T05:19:42;-3.00;99.90
22738;DHT22;11536;50.860;4.286;2022-12-18T05:22:08;-3.00;99.90
22738;DHT22;11536;50.860;4.286;2022-12-18T05:24:34;-3.00;99.90
22738;DHT22;11536;50.860;4.286;2022-12-18T05:26:59;-3.00;99.90
22738;DHT22;11536;50.860;4.286;2022-12-18T05:29:25;-3.00;99.90
22738;DHT22;11536;50.860;4.286;2022-12-18T05:31:51;-3.00;99.90
22738;DHT22;11536;50.860;4.286;2022-12-18T05:34:16;-3.00;99.90
22738;DHT22;11536;50.860;4.286;2022-12-18T05:36:42;-3.00;99.90
22738;DHT22;11536;50.860;4.286;2022-12-18T05:39:07;-3.10;99.90
22738;DHT22;11536;50.860;4.286;2022-12-18T05:41:33;-3.00;99.90
22738;DHT22;11536;50.860;4.286;2022-12-18T05:43:59;-3.10;99.90
22738;DHT22;11536;50.860;4.286;2022-12-18T05:46:25;-3.00;99.90
22738;DHT22;11536;50.860;4.286;2022-12-18T05:48:51;-3.00;99.90
22738;DHT22;11536;50.860;4.286;2022-12-18T05:51:19;-3.00;99.90
22738;DHT22;11536;50.860;4.286;2022-12-18T05:53:45;-3.00;99.90
22738;DHT22;11536;50.860;4.286;2022-12-18T05:56:13;-3.00;99.90
22738;DHT22;11536;50.860;4.286;2022-12-18T05:58:40;-3.00;99.90
22738;DHT22;11536;50.860;4.286;2022-12-18T06:03:32;-3.00;99.90
22738;DHT22;11536;50.860;4.286;2022-12-18T06:05:58;-3.00;99.90
22738;DHT22;11536;50.860;4.286;2022-12-18T06:08:23;-3.00;99.90
22738;DHT22;11536;50.860;4.286;2022-12-18T06:10:52;-3.10;99.90
22738;DHT22;11536;50.860;4.286;2022-12-18T06:13:19;-3.10;99.90
22738;DHT22;11536;50.860;4.286;2022-12-18T06:15:44;-3.10;99.90
22738;DHT22;11536;50.860;4.286;2022-12-18T06:18:10;-3.10;99.90
22738;DHT22;11536;50.860;4.286;2022-12-18T06:20:35;-3.10;99.90
22738;DHT22;11536;50.860;4.286;2022-12-18T06:23:03;-3.10;99.90
22738;DHT22;11536;50.860;4.286;2022-12-18T06:25:28;-3.10;99.90
22738;DHT22;11536;50.860;4.286;2022-12-18T06:27:54;-3.10;99.90
22738;DHT22;11536;50.860;4.286;2022-12-18T06:30:20;-3.10;99.90
22738;DHT22;11536;50.860;4.286;2022-12-18T06:32:47;-3.10;99.90
22738;DHT22;11536;50.860;4.286;2022-12-18T06:35:13;-3.10;99.90
22738;DHT22;11536;50.860;4.286;2022-12-18T06:37:38;-3.10;99.90
22738;DHT22;11536;50.860;4.286;2022-12-18T06:40:04;-3.10;99.90
22738;DHT22;11536;50.860;4.286;2022-12-18T06:42:30;-3.10;99.90
22738;DHT22;11536;50.860;4.286;2022-12-18T06:44:56;-3.10;99.90
22738;DHT22;11536;50.860;4.286;2022-12-18T06:47:21;-3.10;99.90
22738;DHT22;11536;50.860;4.286;2022-12-18T06:49:47;-3.10;99.90
22738;DHT22;11536;50.860;4.286;2022-12-18T06:52:12;-3.10;99.90
22738;DHT22;11536;50.860;4.286;2022-12-18T06:54:38;-3.10;99.90
22738;DHT22;11536;50.860;4.286;2022-12-18T06:57:03;-3.10;99.90
22738;DHT22;11536;50.860;4.286;2022-12-18T06:59:29;-3.10;99.90
22738;DHT22;11536;50.860;4.286;2022-12-18T07:01:54;-3.10;99.90
22738;DHT22;11536;50.860;4.286;2022-12-18T07:04:20;-3.10;99.90
22738;DHT22;11536;50.860;4.286;2022-12-18T07:06:46;-3.10;99.90
22738;DHT22;11536;50.860;4.286;2022-12-18T07:09:11;-3.10;99.90
22738;DHT22;11536;50.860;4.286;2022-12-18T07:11:37;-3.10;99.90
22738;DHT22;11536;50.860;4.286;2022-12-18T07:14:02;-3.10;99.90
22738;DHT22;11536;50.860;4.286;2022-12-18T07:16:28;-3.10;99.90
22738;DHT22;11536;50.860;4.286;2022-12-18T07:18:56;-3.10;99.90
22738;DHT22;11536;50.860;4.286;2022-12-18T07:21:23;-3.00;99.90
22738;DHT22;11536;50.860;4.286;2022-12-18T07:23:48;-3.00;99.90
22738;DHT22;11536;50.860;4.286;2022-12-18T07:26:16;-2.90;99.90
22738;DHT22;11536;50.860;4.286;2022-12-18T07:28:42;-2.90;99.90
22738;DHT22;11536;50.860;4.286;2022-12-18T07:31:15;-2.80;99.90
22738;DHT22;11536;50.860;4.286;2022-12-18T07:33:40;-2.80;99.90
22738;DHT22;11536;50.860;4.286;2022-12-18T07:36:07;-2.70;99.90
22738;DHT22;11536;50.860;4.286;2022-12-18T07:38:34;-2.70;99.90
22738;DHT22;11536;50.860;4.286;2022-12-18T07:41:08;-2.60;99.90
22738;DHT22;11536;50.860;4.286;2022-12-18T07:43:34;-2.60;99.90
22738;DHT22;11536;50.860;4.286;2022-12-18T07:46:00;-2.50;99.90
22738;DHT22;11536;50.860;4.286;2022-12-18T07:48:26;-2.50;99.90
22738;DHT22;11536;50.860;4.286;2022-12-18T07:50:52;-2.40;99.90
22738;DHT22;11536;50.860;4.286;2022-12-18T07:53:18;-2.40;99.90
22738;DHT22;11536;50.860;4.286;2022-12-18T07:55:44;-2.40;99.90
22738;DHT22;11536;50.860;4.286;2022-12-18T07:58:09;-2.30;99.90
22738;DHT22;11536;50.860;4.286;2022-12-18T08:00:35;-2.30;99.90
22738;DHT22;11536;50.860;4.286;2022-12-18T08:03:01;-2.20;99.90
22738;DHT22;11536;50.860;4.286;2022-12-18T08:05:27;-2.10;99.90
22738;DHT22;11536;50.860;4.286;2022-12-18T08:07:53;-2.10;99.90
22738;DHT22;11536;50.860;4.286;2022-12-18T08:10:19;-2.10;99.90
22738;DHT22;11536;50.860;4.286;2022-12-18T08:12:45;-2.10;99.90
22738;DHT22;11536;50.860;4.286;2022-12-18T08:15:11;-2.00;99.90
22738;DHT22;11536;50.860;4.286;2022-12-18T08:17:36;-2.00;99.90
22738;DHT22;11536;50.860;4.286;2022-12-18T08:20:02;-1.90;99.90
22738;DHT22;11536;50.860;4.286;2022-12-18T08:22:28;-1.80;99.90
22738;DHT22;11536;50.860;4.286;2022-12-18T08:24:53;-1.80;99.90
22738;DHT22;11536;50.860;4.286;2022-12-18T08:27:19;-1.70;99.90
22738;DHT22;11536;50.860;4.286;2022-12-18T08:29:44;-1.70;99.90
22738;DHT22;11536;50.860;4.286;2022-12-18T08:32:10;-1.60;99.90
22738;DHT22;11536;50.860;4.286;2022-12-18T08:34:35;-1.60;99.90
22738;DHT22;11536;50.860;4.286;2022-12-18T08:37:01;-1.50;99.90
22738;DHT22;11536;50.860;4.286;2022-12-18T08:39:27;-1.50;99.90
22738;DHT22;11536;50.860;4.286;2022-12-18T08:41:52;-1.40;99.90
22738;DHT22;11536;50.860;4.286;2022-12-18T08:44:36;-1.30;99.90
22738;DHT22;11536;50.860;4.286;2022-12-18T08:47:06;-1.30;99.90
22738;DHT22;11536;50.860;4.286;2022-12-18T08:49:32;-1.20;99.90
22738;DHT22;11536;50.860;4.286;2022-12-18T08:51:58;-1.10;99.90
22738;DHT22;11536;50.860;4.286;2022-12-18T08:54:24;-1.10;99.90
22738;DHT22;11536;50.860;4.286;2022-12-18T08:56:50;-1.00;99.90
22738;DHT22;11536;50.860;4.286;2022-12-18T08:59:17;-1.00;99.90
22738;DHT22;11536;50.860;4.286;2022-12-18T09:01:43;-0.90;99.90
22738;DHT22;11536;50.860;4.286;2022-12-18T09:04:11;-0.80;99.90
22738;DHT22;11536;50.860;4.286;2022-12-18T09:06:38;-0.70;99.90
22738;DHT22;11536;50.860;4.286;2022-12-18T09:09:04;-0.70;99.90
22738;DHT22;11536;50.860;4.286;2022-12-18T09:11:31;-0.60;99.90
22738;DHT22;11536;50.860;4.286;2022-12-18T09:14:06;-0.60;99.90
22738;DHT22;11536;50.860;4.286;2022-12-18T09:16:32;-0.50;99.90
22738;DHT22;11536;50.860;4.286;2022-12-18T09:19:00;-0.50;99.90
22738;DHT22;11536;50.860;4.286;2022-12-18T09:21:28;-0.40;99.90
22738;DHT22;11536;50.860;4.286;2022-12-18T09:23:57;-0.40;99.90
22738;DHT22;11536;50.860;4.286;2022-12-18T09:26:24;-0.40;99.90
22738;DHT22;11536;50.860;4.286;2022-12-18T09:28:50;-0.30;99.90
22738;DHT22;11536;50.860;4.286;2022-12-18T09:31:18;-0.30;99.90
22738;DHT22;11536;50.860;4.286;2022-12-18T09:33:46;-0.30;99.90
22738;DHT22;11536;50.860;4.286;2022-12-18T09:36:14;-0.20;99.90
22738;DHT22;11536;50.860;4.286;2022-12-18T09:38:40;-0.20;99.90
22738;DHT22;11536;50.860;4.286;2022-12-18T09:41:13;-0.10;99.90
22738;DHT22;11536;50.860;4.286;2022-12-18T09:43:43;-0.20;99.90
22738;DHT22;11536;50.860;4.286;2022-12-18T09:46:17;-0.10;99.90
22738;DHT22;11536;50.860;4.286;2022-12-18T09:48:47;-0.10;99.90
22738;DHT22;11536;50.860;4.286;2022-12-18T09:51:27;-0.10;99.90
22738;DHT22;11536;50.860;4.286;2022-12-18T09:53:58;0.00;99.90
22738;DHT22;11536;50.860;4.286;2022-12-18T09:56:28;0.00;99.90
22738;DHT22;11536;50.860;4.286;2022-12-18T09:59:00;0.00;99.90
22738;DHT22;11536;50.860;4.286;2022-12-18T10:01:28;0.00;99.90
22738;DHT22;11536;50.860;4.286;2022-12-18T10:03:54;0.10;99.90
22738;DHT22;11536;50.860;4.286;2022-12-18T10:06:44;0.00;99.90
22738;DHT22;11536;50.860;4.286;2022-12-18T10:09:23;0.10;99.90
22738;DHT22;11536;50.860;4.286;2022-12-18T10:14:52;0.10;99.90
22738;DHT22;11536;50.860;4.286;2022-12-18T10:17:32;0.10;99.90
22738;DHT22;11536;50.860;4.286;2022-12-18T10:20:13;0.20;99.90
22738;DHT22;11536;50.860;4.286;2022-12-18T10:22:53;0.20;99.90
22738;DHT22;11536;50.860;4.286;2022-12-18T10:25:24;0.20;99.90
22738;DHT22;11536;50.860;4.286;2022-12-18T10:27:57;0.20;99.90
22738;DHT22;11536;50.860;4.286;2022-12-18T10:30:24;0.30;99.90
22738;DHT22;11536;50.860;4.286;2022-12-18T10:32:50;0.30;99.90
22738;DHT22;11536;50.860;4.286;2022-12-18T10:35:24;0.30;99.90
22738;DHT22;11536;50.860;4.286;2022-12-18T10:43:42;0.40;99.90
22738;DHT22;11536;50.860;4.286;2022-12-18T10:48:35;0.40;99.90
22738;DHT22;11536;50.860;4.286;2022-12-18T10:51:02;0.50;99.90
22738;DHT22;11536;50.860;4.286;2022-12-18T10:53:30;0.50;99.90
22738;DHT22;11536;50.860;4.286;2022-12-18T10:55:58;0.60;99.90
22738;DHT22;11536;50.860;4.286;2022-12-18T10:58:31;0.60;99.90
22738;DHT22;11536;50.860;4.286;2022-12-18T11:01:06;0.60;99.90
22738;DHT22;11536;50.860;4.286;2022-12-18T11:06:19;0.70;99.90
22738;DHT22;11536;50.860;4.286;2022-12-18T11:09:07;0.80;99.90
22738;DHT22;11536;50.860;4.286;2022-12-18T11:11:52;0.80;99.90
22738;DHT22;11536;50.860;4.286;2022-12-18T11:14:25;0.80;99.90
22738;DHT22;11536;50.860;4.286;2022-12-18T11:16:52;0.80;99.90
22738;DHT22;11536;50.860;4.286;2022-12-18T11:21:59;0.90;99.90
22738;DHT22;11536;50.860;4.286;2022-12-18T11:24:32;0.90;99.90
22738;DHT22;11536;50.860;4.286;2022-12-18T11:27:01;1.00;99.90
22738;DHT22;11536;50.860;4.286;2022-12-18T11:29:32;1.00;99.90
22738;DHT22;11536;50.860;4.286;2022-12-18T11:32:30;1.20;99.90
22738;DHT22;11536;50.860;4.286;2022-12-18T11:35:17;1.10;99.90
22738;DHT22;11536;50.860;4.286;2022-12-18T11:37:49;1.10;99.90
22738;DHT22;11536;50.860;4.286;2022-12-18T11:40:30;1.20;99.90
22738;DHT22;11536;50.860;4.286;2022-12-18T11:43:06;1.20;99.90
22738;DHT22;11536;50.860;4.286;2022-12-18T11:45:40;1.30;99.90
22738;DHT22;11536;50.860;4.286;2022-12-18T11:48:14;1.30;99.90
22738;DHT22;11536;50.860;4.286;2022-12-18T11:53:17;1.30;99.90
22738;DHT22;11536;50.860;4.286;2022-12-18T12:15:39;1.50;99.90
22738;DHT22;11536;50.860;4.286;2022-12-18T12:24:38;1.60;99.90
22738;DHT22;11536;50.860;4.286;2022-12-18T12:26:53;1.60;99.90
22738;DHT22;11536;50.860;4.286;2022-12-18T12:32:44;1.70;99.90
22738;DHT22;11536;50.860;4.286;2022-12-18T12:38:40;1.70;99.90
22738;DHT22;11536;50.860;4.286;2022-12-18T12:40:46;1.70;99.90
22738;DHT22;11536;50.860;4.286;2022-12-18T12:43:41;1.80;99.90
22738;DHT22;11536;50.860;4.286;2022-12-18T12:46:13;1.80;99.90
22738;DHT22;11536;50.860;4.286;2022-12-18T12:48:49;1.80;99.90
22738;DHT22;11536;50.860;4.286;2022-12-18T12:53:46;1.80;99.90
22738;DHT22;11536;50.860;4.286;2022-12-18T12:56:15;1.80;99.90
22738;DHT22;11536;50.860;4.286;2022-12-18T13:01:43;1.80;99.90
22738;DHT22;11536;50.860;4.286;2022-12-18T13:09:18;1.90;99.90
22738;DHT22;11536;50.860;4.286;2022-12-18T13:11:45;1.90;99.90
22738;DHT22;11536;50.860;4.286;2022-12-18T13:14:38;1.90;99.90
22738;DHT22;11536;50.860;4.286;2022-12-18T13:19:50;1.90;99.90
22738;DHT22;11536;50.860;4.286;2022-12-18T13:22:31;1.90;99.90
22738;DHT22;11536;50.860;4.286;2022-12-18T13:24:59;2.00;99.90
22738;DHT22;11536;50.860;4.286;2022-12-18T13:41:22;2.00;99.90
22738;DHT22;11536;50.860;4.286;2022-12-18T13:43:55;2.00;99.90
22738;DHT22;11536;50.860;4.286;2022-12-18T13:46:44;2.00;99.90
22738;DHT22;11536;50.860;4.286;2022-12-18T13:51:43;2.00;99.90
22738;DHT22;11536;50.860;4.286;2022-12-18T13:54:37;2.00;99.90
22738;DHT22;11536;50.860;4.286;2022-12-18T13:57:05;2.10;99.90
22738;DHT22;11536;50.860;4.286;2022-12-18T13:59:37;2.10;99.90
22738;DHT22;11536;50.860;4.286;2022-12-18T14:02:16;2.10;99.90
22738;DHT22;11536;50.860;4.286;2022-12-18T14:04:45;2.10;99.90
22738;DHT22;11536;50.860;4.286;2022-12-18T14:07:14;2.10;99.90
22738;DHT22;11536;50.860;4.286;2022-12-18T14:09:43;2.10;99.90
22738;DHT22;11536;50.860;4.286;2022-12-18T14:12:21;2.10;99.90
22738;DHT22;11536;50.860;4.286;2022-12-18T14:17:57;2.10;99.90
22738;DHT22;11536;50.860;4.286;2022-12-18T14:20:25;2.10;99.90
22738;DHT22;11536;50.860;4.286;2022-12-18T14:22:54;2.10;99.90
22738;DHT22;11536;50.860;4.286;2022-12-18T14:25:23;2.10;99.90
22738;DHT22;11536;50.860;4.286;2022-12-18T14:28:33;2.10;99.90
22738;DHT22;11536;50.860;4.286;2022-12-18T14:30:42;2.10;99.90
22738;DHT22;11536;50.860;4.286;2022-12-18T14:33:19;2.00;99.90
22738;DHT22;11536;50.860;4.286;2022-12-18T14:36:04;2.10;99.90
22738;DHT22;11536;50.860;4.286;2022-12-18T14:38:38;2.10;99.90
22738;DHT22;11536;50.860;4.286;2022-12-18T14:41:06;2.10;99.90
22738;DHT22;11536;50.860;4.286;2022-12-18T14:43:37;2.10;99.90
22738;DHT22;11536;50.860;4.286;2022-12-18T14:46:05;2.00;99.90
22738;DHT22;11536;50.860;4.286;2022-12-18T14:48:35;2.10;99.90
22738;DHT22;11536;50.860;4.286;2022-12-18T14:51:27;2.10;99.90
22738;DHT22;11536;50.860;4.286;2022-12-18T14:53:56;2.10;99.90
22738;DHT22;11536;50.860;4.286;2022-12-18T14:56:29;2.10;99.90
22738;DHT22;11536;50.860;4.286;2022-12-18T14:59:05;2.10;99.90
22738;DHT22;11536;50.860;4.286;2022-12-18T15:01:38;2.10;99.90
22738;DHT22;11536;50.860;4.286;2022-12-18T15:04:18;2.10;99.90
22738;DHT22;11536;50.860;4.286;2022-12-18T15:06:48;2.10;99.90
22738;DHT22;11536;50.860;4.286;2022-12-18T15:09:25;2.10;99.90
22738;DHT22;11536;50.860;4.286;2022-12-18T15:11:57;2.10;99.90
22738;DHT22;11536;50.860;4.286;2022-12-18T15:14:34;2.10;99.90
22738;DHT22;11536;50.860;4.286;2022-12-18T15:17:02;2.10;99.90
22738;DHT22;11536;50.860;4.286;2022-12-18T15:19:43;2.10;99.90
22738;DHT22;11536;50.860;4.286;2022-12-18T15:22:29;2.10;99.90
22738;DHT22;11536;50.860;4.286;2022-12-18T15:24:56;2.10;99.90
22738;DHT22;11536;50.860;4.286;2022-12-18T15:27:35;2.10;99.90
22738;DHT22;11536;50.860;4.286;2022-12-18T15:32:39;2.10;99.90
22738;DHT22;11536;50.860;4.286;2022-12-18T15:37:40;2.10;99.90
22738;DHT22;11536;50.860;4.286;2022-12-18T15:40:11;2.10;99.90
22738;DHT22;11536;50.860;4.286;2022-12-18T15:42:37;2.10;99.90
22738;DHT22;11536;50.860;4.286;2022-12-18T15:45:21;2.10;99.90
22738;DHT22;11536;50.860;4.286;2022-12-18T15:47:47;2.10;99.90
22738;DHT22;11536;50.860;4.286;2022-12-18T15:50:16;2.10;99.90
22738;DHT22;11536;50.860;4.286;2022-12-18T15:52:44;2.10;99.90
22738;DHT22;11536;50.860;4.286;2022-12-18T15:55:17;2.10;99.90
22738;DHT22;11536;50.860;4.286;2022-12-18T15:58:04;2.10;99.90
22738;DHT22;11536;50.860;4.286;2022-12-18T16:00:31;2.10;99.90
22738;DHT22;11536;50.860;4.286;2022-12-18T16:02:58;2.20;99.90
22738;DHT22;11536;50.860;4.286;2022-12-18T16:05:24;2.20;99.90
22738;DHT22;11536;50.860;4.286;2022-12-18T16:07:51;2.20;99.90
22738;DHT22;11536;50.860;4.286;2022-12-18T16:10:19;2.20;99.90
22738;DHT22;11536;50.860;4.286;2022-12-18T16:12:45;2.20;99.90
22738;DHT22;11536;50.860;4.286;2022-12-18T16:15:13;2.20;99.90
22738;DHT22;11536;50.860;4.286;2022-12-18T16:17:42;2.20;99.90
22738;DHT22;11536;50.860;4.286;2022-12-18T16:20:20;2.20;99.90
22738;DHT22;11536;50.860;4.286;2022-12-18T16:22:46;2.20;99.90
22738;DHT22;11536;50.860;4.286;2022-12-18T16:25:24;2.20;99.90
22738;DHT22;11536;50.860;4.286;2022-12-18T16:27:51;2.20;99.90
22738;DHT22;11536;50.860;4.286;2022-12-18T16:30:27;2.20;99.90
22738;DHT22;11536;50.860;4.286;2022-12-18T16:32:54;2.30;99.90
22738;DHT22;11536;50.860;4.286;2022-12-18T16:35:20;2.30;99.90
22738;DHT22;11536;50.860;4.286;2022-12-18T16:37:46;2.30;99.90
22738;DHT22;11536;50.860;4.286;2022-12-18T16:40:14;2.30;99.90
22738;DHT22;11536;50.860;4.286;2022-12-18T16:42:42;2.30;99.90
22738;DHT22;11536;50.860;4.286;2022-12-18T16:45:12;2.30;99.90
22738;DHT22;11536;50.860;4.286;2022-12-18T16:47:39;2.30;99.90
22738;DHT22;11536;50.860;4.286;2022-12-18T16:50:09;2.30;99.90
22738;DHT22;11536;50.860;4.286;2022-12-18T16:52:35;2.30;99.90
22738;DHT22;11536;50.860;4.286;2022-12-18T16:55:01;2.30;99.90
22738;DHT22;11536;50.860;4.286;2022-12-18T16:57:27;2.40;99.90
22738;DHT22;11536;50.860;4.286;2022-12-18T16:59:53;2.40;99.90
22738;DHT22;11536;50.860;4.286;2022-12-18T17:02:23;2.40;99.90
22738;DHT22;11536;50.860;4.286;2022-12-18T17:04:53;2.40;99.90
22738;DHT22;11536;50.860;4.286;2022-12-18T17:07:19;2.40;99.90
22738;DHT22;11536;50.860;4.286;2022-12-18T17:09:46;2.40;99.90
22738;DHT22;11536;50.860;4.286;2022-12-18T17:12:15;2.40;99.90
22738;DHT22;11536;50.860;4.286;2022-12-18T17:14:41;2.40;99.90
22738;DHT22;11536;50.860;4.286;2022-12-18T17:17:06;2.40;99.90
22738;DHT22;11536;50.860;4.286;2022-12-18T17:19:32;2.40;99.90
22738;DHT22;11536;50.860;4.286;2022-12-18T17:21:58;2.40;99.90
22738;DHT22;11536;50.860;4.286;2022-12-18T17:24:27;2.50;99.90
22738;DHT22;11536;50.860;4.286;2022-12-18T17:26:52;2.50;99.90
22738;DHT22;11536;50.860;4.286;2022-12-18T17:29:19;2.50;99.90
22738;DHT22;11536;50.860;4.286;2022-12-18T17:31:46;2.50;99.90
22738;DHT22;11536;50.860;4.286;2022-12-18T17:34:12;2.50;99.90
22738;DHT22;11536;50.860;4.286;2022-12-18T17:36:39;2.50;99.90
22738;DHT22;11536;50.860;4.286;2022-12-18T17:39:07;2.50;99.90
22738;DHT22;11536;50.860;4.286;2022-12-18T17:41:33;2.50;99.90